Terminal Aerodrome Forecast
Issued by NWS

Home | Current Version | Previous Version | Text Only | Print | Product List | Glossary Off
Versions: 1 2 3 4 5 6 7 8 9 10 11 12 13 14 15 16 17 18 19

000
FTUS43 KABR 302300
TAFMBG
TAF
KMBG 302320Z 0100/0124 32021G30KT P6SM VCSH SCT090 BKN120 BKN250
      TEMPO 0100/0102 -SHRA SCT040 BKN080 OVC100
     FM010200 34014KT P6SM SCT080 BKN120 BKN250
     FM011200 VRB06KT P6SM SKC=

USA.gov is the U.S. government's official web portal to all federal, state and local government web resources and services.